Ashtabula, Ohio
Current Conditions -  °F | °C
As of 2:53 PM on Friday 24 Oct 2014 (Local Time) from KHZY Reporting Station
Few Clouds Few Clouds  
Wind Chill: 59°   Ceiling: Unl
Heat Index: 59°   Visibility: 10mi
Dew Point: 44°   Wind: 12mph
Humidity: 58%   Direction: 310°NW
Pressure: 30.03"   Gusts: NA
Location:  41.89°N, 80.79°W
Report Text: KHZY 241853Z AUTO 31010KT 10SM FEW030 15/07 A3003 RMK AO2 SLP171 T01500067
Loading
Personal Weather Stations






























Interactive Weather Map New forecast layout! Learn more

10-Day Weather Forecast

Advertisements
Track Severe Weather on mobile